createdAt,value
2018-10-11T00:00:03.959Z,18.209229
2018-10-11T00:00:33.640Z,18.209229
2018-10-11T00:01:03.397Z,18.22937
2018-10-11T00:01:33.145Z,18.209229
2018-10-11T00:02:02.688Z,18.199158
2018-10-11T00:02:32.604Z,18.209229
2018-10-11T00:03:02.093Z,18.259583
2018-10-11T00:03:31.801Z,18.289795
2018-10-11T00:04:01.428Z,18.289795
2018-10-11T00:04:31.181Z,18.299866
2018-10-11T00:05:00.790Z,18.320007
2018-10-11T00:05:30.479Z,18.330078
2018-10-11T00:06:00.430Z,18.35022
2018-10-11T00:06:30.074Z,18.35022
2018-10-11T00:06:59.916Z,18.330078
2018-10-11T00:07:29.404Z,18.269653
2018-10-11T00:07:59.164Z,18.168945
2018-10-11T00:08:28.689Z,18.027954
2018-10-11T00:08:58.557Z,18.027954
2018-10-11T00:09:29.233Z,18.027954
2018-10-11T00:09:59.679Z,18.017883
2018-10-11T00:10:29.251Z,17.947388
2018-10-11T00:10:59.118Z,17.917175
2018-10-11T00:11:29.027Z,17.866821
2018-10-11T00:11:58.959Z,17.886963
2018-10-11T00:12:28.739Z,17.917175
2018-10-11T00:12:58.706Z,17.866821
2018-10-11T00:13:28.353Z,17.806396
2018-10-11T00:13:58.281Z,17.836609
2018-10-11T00:14:27.792Z,17.886963
2018-10-11T00:14:57.410Z,17.947388
2018-10-11T00:15:27.157Z,17.917175
2018-10-11T00:15:56.809Z,17.947388
2018-10-11T00:16:26.322Z,17.997742
2018-10-11T00:16:56.242Z,18.09845
2018-10-11T00:17:28.525Z,18.108521
2018-10-11T00:17:59.103Z,17.987671
2018-10-11T00:18:32.063Z,17.947388
2018-10-11T00:19:05.277Z,17.987671
2018-10-11T00:19:36.429Z,18.017883
2018-10-11T00:20:09.506Z,18.068237
2018-10-11T00:20:41.051Z,18.068237
2018-10-11T00:21:20.997Z,18.078308
2018-10-11T00:21:51.690Z,18.078308
2018-10-11T00:22:24.570Z,18.09845
2018-10-11T00:22:55.327Z,18.09845
2018-10-11T00:23:25.113Z,18.108521
2018-10-11T00:23:54.830Z,18.148804
2018-10-11T00:24:24.619Z,18.22937
2018-10-11T00:24:54.391Z,18.22937
2018-10-11T00:25:24.544Z,18.289795
2018-10-11T00:25:54.037Z,18.289795
2018-10-11T00:26:24.370Z,18.35022
2018-10-11T00:26:53.906Z,18.390503
2018-10-11T00:27:23.449Z,18.410645
2018-10-11T00:27:53.431Z,18.420715
2018-10-11T00:28:24.138Z,18.420715
2018-10-11T00:28:53.690Z,18.370361
2018-10-11T00:29:23.472Z,18.370361
2018-10-11T00:29:53.088Z,18.370361
2018-10-11T00:30:22.959Z,18.390503
2018-10-11T00:30:52.988Z,18.370361
2018-10-11T00:31:22.863Z,18.410645
2018-10-11T00:31:52.709Z,18.390503
2018-10-11T00:32:22.203Z,18.410645
2018-10-11T00:32:51.875Z,18.390503
2018-10-11T00:33:21.412Z,18.390503
2018-10-11T00:33:51.470Z,18.320007
2018-10-11T00:34:21.419Z,18.360291
2018-10-11T00:34:50.946Z,18.410645
2018-10-11T00:35:20.686Z,18.420715
2018-10-11T00:35:50.274Z,18.440857
2018-10-11T00:36:19.881Z,18.440857
2018-10-11T00:36:49.936Z,18.450928
2018-10-11T00:37:19.514Z,18.511353
2018-10-11T00:37:49.309Z,18.501282
2018-10-11T00:38:19.269Z,18.541565
2018-10-11T00:38:49.351Z,18.521423
2018-10-11T00:39:18.941Z,18.551636
2018-10-11T00:39:48.613Z,18.60199
2018-10-11T00:40:18.553Z,18.632202
2018-10-11T00:40:48.137Z,18.60199
2018-10-11T00:41:17.865Z,18.632202
2018-10-11T00:41:47.398Z,18.60199
2018-10-11T00:42:17.263Z,18.622131
2018-10-11T00:42:47.079Z,18.632202
2018-10-11T00:43:16.945Z,18.632202
2018-10-11T00:43:46.954Z,18.632202
2018-10-11T00:44:16.852Z,18.632202
2018-10-11T00:44:46.612Z,18.60199
2018-10-11T00:45:16.147Z,18.652344
2018-10-11T00:45:45.653Z,18.652344
2018-10-11T00:46:15.466Z,18.702698
2018-10-11T00:46:45.144Z,18.702698
2018-10-11T00:47:14.764Z,18.722839
2018-10-11T00:47:44.421Z,18.753052
2018-10-11T00:48:15.291Z,18.763123
2018-10-11T00:48:44.963Z,18.763123
2018-10-11T00:49:14.507Z,18.783264
2018-10-11T00:49:44.276Z,18.813477
2018-10-11T00:50:13.918Z,18.803406
2018-10-11T00:50:43.854Z,18.783264
2018-10-11T00:51:13.249Z,18.783264
2018-10-11T00:51:42.731Z,18.783264
2018-10-11T00:52:12.219Z,18.813477
2018-10-11T00:52:41.716Z,18.763123
2018-10-11T00:53:11.243Z,18.763123
2018-10-11T00:53:40.730Z,18.783264
2018-10-11T00:54:10.212Z,18.783264
2018-10-11T00:54:39.837Z,18.783264
2018-10-11T00:55:09.382Z,18.763123
2018-10-11T00:55:38.876Z,18.803406
2018-10-11T00:56:08.376Z,18.823547
2018-10-11T00:56:37.860Z,18.843689
2018-10-11T00:57:07.359Z,18.85376
2018-10-11T00:57:36.847Z,18.85376
2018-10-11T00:58:06.429Z,18.85376
2018-10-11T00:58:35.956Z,18.813477
2018-10-11T00:59:05.453Z,18.813477
2018-10-11T00:59:34.983Z,18.783264
2018-10-11T01:00:04.503Z,18.803406
2018-10-11T01:00:34.019Z,18.823547
2018-10-11T01:01:03.518Z,18.85376
2018-10-11T01:01:33.148Z,18.843689
2018-10-11T01:02:02.789Z,18.843689
2018-10-11T01:02:32.380Z,18.783264
2018-10-11T01:03:01.871Z,18.763123
2018-10-11T01:03:31.417Z,18.763123
2018-10-11T01:04:00.985Z,18.813477
2018-10-11T01:04:30.543Z,18.873901
2018-10-11T01:05:00.041Z,18.873901
2018-10-11T01:05:29.614Z,18.843689
2018-10-11T01:05:59.175Z,18.843689
2018-10-11T01:06:28.791Z,18.763123
2018-10-11T01:06:58.279Z,18.783264
2018-10-11T01:07:27.789Z,18.783264
2018-10-11T01:07:57.386Z,18.753052
2018-10-11T01:08:27.907Z,18.753052
2018-10-11T01:08:57.422Z,18.803406
2018-10-11T01:09:27.072Z,18.783264
2018-10-11T01:09:56.603Z,18.803406
2018-10-11T01:10:26.087Z,18.803406
2018-10-11T01:10:55.690Z,18.823547
2018-10-11T01:11:25.184Z,18.813477
2018-10-11T01:11:54.835Z,18.823547
2018-10-11T01:12:24.320Z,18.813477
2018-10-11T01:12:53.893Z,18.823547
2018-10-11T01:13:23.383Z,18.813477
2018-10-11T01:13:52.965Z,18.803406
2018-10-11T01:14:22.468Z,18.803406
2018-10-11T01:14:51.966Z,18.813477
2018-10-11T01:15:21.495Z,18.783264
2018-10-11T01:15:51.108Z,18.783264
2018-10-11T01:16:20.581Z,18.753052
2018-10-11T01:16:50.085Z,18.783264
2018-10-11T01:17:19.585Z,18.763123
2018-10-11T01:17:48.059Z,18.803406
2018-10-11T01:18:17.543Z,18.753052
2018-10-11T01:18:47.102Z,18.73291
2018-10-11T01:19:16.606Z,18.702698
2018-10-11T01:19:47.110Z,18.672485
2018-10-11T01:20:16.610Z,18.702698
2018-10-11T01:20:46.108Z,18.692627
2018-10-11T01:21:15.620Z,18.692627
2018-10-11T01:21:45.166Z,18.692627
2018-10-11T01:22:15.660Z,18.551636
2018-10-11T01:22:45.180Z,18.541565
2018-10-11T01:23:15.689Z,18.511353
2018-10-11T01:23:45.251Z,18.521423
2018-10-11T01:24:14.781Z,18.541565
2018-10-11T01:24:44.290Z,18.581848
2018-10-11T01:25:13.782Z,18.551636
2018-10-11T01:25:43.278Z,18.551636
2018-10-11T01:26:12.828Z,18.581848
2018-10-11T01:26:42.262Z,18.581848
2018-10-11T01:27:11.763Z,18.571777
2018-10-11T01:27:41.262Z,18.541565
2018-10-11T01:28:10.775Z,18.551636
2018-10-11T01:28:40.289Z,18.60199
2018-10-11T01:29:09.834Z,18.622131
2018-10-11T01:29:39.344Z,18.622131
2018-10-11T01:30:08.908Z,18.60199
2018-10-11T01:30:38.317Z,18.622131
2018-10-11T01:31:07.834Z,18.622131
2018-10-11T01:31:37.339Z,18.632202
2018-10-11T01:32:06.843Z,18.652344
2018-10-11T01:32:36.355Z,18.581848
2018-10-11T01:33:06.840Z,18.581848
2018-10-11T01:33:36.349Z,18.622131
2018-10-11T01:34:05.931Z,18.672485
2018-10-11T01:34:35.443Z,18.702698
2018-10-11T01:35:04.917Z,18.702698
2018-10-11T01:35:34.426Z,18.722839
2018-10-11T01:36:03.920Z,18.702698
2018-10-11T01:36:33.412Z,18.722839
2018-10-11T01:37:02.911Z,18.73291
2018-10-11T01:37:32.399Z,18.753052
2018-10-11T01:38:01.903Z,18.753052
2018-10-11T01:38:31.387Z,18.753052
2018-10-11T01:39:00.878Z,18.753052
2018-10-11T01:39:30.413Z,18.753052
2018-10-11T01:40:00.008Z,18.692627
2018-10-11T01:40:29.518Z,18.652344
2018-10-11T01:40:59.036Z,18.632202
2018-10-11T01:41:28.539Z,18.632202
2018-10-11T01:41:58.030Z,18.60199
2018-10-11T01:42:27.522Z,18.632202
2018-10-11T01:42:57.029Z,18.652344
2018-10-11T01:43:26.541Z,18.702698
2018-10-11T01:43:56.065Z,18.73291
2018-10-11T01:44:25.613Z,18.753052
2018-10-11T01:44:55.107Z,18.783264
2018-10-11T01:45:24.622Z,18.763123
2018-10-11T01:45:54.135Z,18.783264
2018-10-11T01:46:23.651Z,18.763123
2018-10-11T01:46:53.136Z,18.813477
2018-10-11T01:47:22.643Z,18.823547
2018-10-11T01:47:52.132Z,18.803406
2018-10-11T01:48:21.628Z,18.813477
2018-10-11T01:48:51.139Z,18.823547
2018-10-11T01:49:21.623Z,18.823547
2018-10-11T01:49:51.170Z,18.803406
2018-10-11T01:50:20.674Z,18.843689
2018-10-11T01:50:50.159Z,18.813477
2018-10-11T01:51:19.772Z,18.823547
2018-10-11T01:51:49.281Z,18.783264
2018-10-11T01:52:18.797Z,18.823547
2018-10-11T01:52:48.290Z,18.823547
2018-10-11T01:53:17.863Z,18.813477
2018-10-11T01:53:47.363Z,18.803406
2018-10-11T01:54:16.870Z,18.813477
2018-10-11T01:54:46.414Z,18.843689
2018-10-11T01:55:15.918Z,18.823547
2018-10-11T01:55:46.397Z,18.803406
2018-10-11T01:56:15.927Z,18.783264
2018-10-11T01:56:45.457Z,18.803406
2018-10-11T01:57:14.933Z,18.813477
2018-10-11T01:57:44.563Z,18.823547
2018-10-11T01:58:14.060Z,18.823547
2018-10-11T01:58:43.587Z,18.823547
2018-10-11T01:59:13.094Z,18.823547
2018-10-11T01:59:42.588Z,18.813477
2018-10-11T02:00:12.134Z,18.813477
2018-10-11T02:00:41.627Z,18.803406
2018-10-11T02:01:11.122Z,18.843689
2018-10-11T02:01:40.610Z,18.823547
2018-10-11T02:02:10.101Z,18.843689
2018-10-11T02:02:39.598Z,18.843689
2018-10-11T02:03:10.076Z,18.85376
2018-10-11T02:03:39.563Z,18.843689
2018-10-11T02:04:09.054Z,18.813477
2018-10-11T02:04:38.548Z,18.783264
2018-10-11T02:05:08.111Z,18.763123
2018-10-11T02:05:37.626Z,18.73291
2018-10-11T02:06:07.124Z,18.783264
2018-10-11T02:06:36.617Z,18.783264
2018-10-11T02:07:06.109Z,18.783264
2018-10-11T02:07:35.632Z,18.753052
2018-10-11T02:08:05.119Z,18.753052
2018-10-11T02:08:34.616Z,18.702698
2018-10-11T02:09:04.101Z,18.722839
2018-10-11T02:09:33.711Z,18.652344
2018-10-11T02:10:03.805Z,18.662415
2018-10-11T02:10:33.107Z,18.662415
2018-10-11T02:11:02.684Z,18.662415
2018-10-11T02:11:33.214Z,18.622131
2018-10-11T02:12:02.702Z,18.541565
2018-10-11T02:12:32.197Z,18.420715
2018-10-11T02:13:01.694Z,18.269653
2018-10-11T02:13:31.182Z,18.168945
2018-10-11T02:14:00.674Z,18.108521
2018-10-11T02:14:30.172Z,18.138733
2018-10-11T02:14:59.672Z,18.209229
2018-10-11T02:15:29.289Z,18.269653
2018-10-11T02:15:58.786Z,18.330078
2018-10-11T02:16:28.319Z,18.410645
2018-10-11T02:16:57.805Z,18.450928
2018-10-11T02:17:27.294Z,18.471069
2018-10-11T02:17:56.802Z,18.450928
2018-10-11T02:18:26.297Z,18.471069
2018-10-11T02:18:55.836Z,18.48114
2018-10-11T02:19:25.325Z,18.48114
2018-10-11T02:19:54.810Z,18.511353
2018-10-11T02:20:24.299Z,18.511353
2018-10-11T02:20:53.841Z,18.501282
2018-10-11T02:21:24.323Z,18.471069
2018-10-11T02:21:53.826Z,18.501282
2018-10-11T02:22:23.362Z,18.541565
2018-10-11T02:22:52.834Z,18.551636
2018-10-11T02:23:22.333Z,18.541565
2018-10-11T02:23:51.872Z,18.551636
2018-10-11T02:24:21.372Z,18.571777
2018-10-11T02:24:50.873Z,18.622131
2018-10-11T02:25:20.404Z,18.632202
2018-10-11T02:25:49.970Z,18.652344
2018-10-11T02:26:19.447Z,18.622131
2018-10-11T02:26:49.011Z,18.551636
2018-10-11T02:27:18.451Z,18.410645
2018-10-11T02:27:47.946Z,18.410645
2018-10-11T02:28:17.437Z,18.471069
2018-10-11T02:28:47.933Z,18.420715
2018-10-11T02:29:17.424Z,18.390503
2018-10-11T02:29:46.950Z,18.410645
2018-10-11T02:30:16.445Z,18.360291
2018-10-11T02:30:45.936Z,18.299866
2018-10-11T02:31:15.485Z,18.259583
2018-10-11T02:31:44.983Z,18.22937
2018-10-11T02:32:14.473Z,18.259583
2018-10-11T02:32:43.968Z,18.330078
2018-10-11T02:33:13.457Z,18.370361
2018-10-11T02:33:42.951Z,18.440857
2018-10-11T02:34:12.449Z,18.48114
2018-10-11T02:34:41.944Z,18.521423
2018-10-11T02:35:11.486Z,18.521423
2018-10-11T02:35:40.980Z,18.48114
2018-10-11T02:36:10.527Z,18.360291
2018-10-11T02:36:40.020Z,18.22937
2018-10-11T02:37:09.522Z,18.22937
2018-10-11T02:37:39.028Z,18.199158
2018-10-11T02:38:08.540Z,18.249512
2018-10-11T02:38:38.035Z,18.330078
2018-10-11T02:39:07.524Z,18.360291
2018-10-11T02:39:37.034Z,18.410645
2018-10-11T02:40:06.525Z,18.450928
2018-10-11T02:40:36.039Z,18.48114
2018-10-11T02:41:05.518Z,18.521423
2018-10-11T02:41:35.078Z,18.501282
2018-10-11T02:42:04.570Z,18.450928
2018-10-11T02:42:34.095Z,18.420715
2018-10-11T02:43:03.592Z,18.390503
2018-10-11T02:43:33.155Z,18.320007
2018-10-11T02:44:02.659Z,18.259583
2018-10-11T02:44:32.184Z,18.168945
2018-10-11T02:45:01.678Z,18.078308
2018-10-11T02:45:31.261Z,18.027954
2018-10-11T02:46:00.761Z,17.967529
2018-10-11T02:46:31.298Z,17.967529
2018-10-11T02:47:00.800Z,17.967529
2018-10-11T02:47:30.294Z,17.997742
2018-10-11T02:47:59.792Z,18.027954
2018-10-11T02:48:29.296Z,18.118591
2018-10-11T02:48:58.790Z,18.199158
2018-10-11T02:49:28.277Z,18.289795
2018-10-11T02:49:57.765Z,18.330078
2018-10-11T02:50:27.320Z,18.360291
2018-10-11T02:50:56.812Z,18.420715
2018-10-11T02:51:26.312Z,18.440857
2018-10-11T02:51:55.854Z,18.450928
2018-10-11T02:52:25.382Z,18.450928
2018-10-11T02:52:55.864Z,18.420715
2018-10-11T02:53:25.351Z,18.420715
2018-10-11T02:53:54.869Z,18.450928
2018-10-11T02:54:24.379Z,18.501282
2018-10-11T02:54:53.875Z,18.48114
2018-10-11T02:55:23.366Z,18.48114
2018-10-11T02:55:53.877Z,18.511353
2018-10-11T02:56:23.386Z,18.521423
2018-10-11T02:56:52.948Z,18.551636
2018-10-11T02:57:22.484Z,18.571777
2018-10-11T02:57:51.996Z,18.581848
2018-10-11T02:58:21.491Z,18.60199
2018-10-11T02:58:50.980Z,18.581848
2018-10-11T02:59:20.481Z,18.60199
2018-10-11T02:59:49.959Z,18.551636
2018-10-11T03:00:19.455Z,18.571777
2018-10-11T03:00:48.950Z,18.571777
2018-10-11T03:01:19.851Z,18.60199
2018-10-11T03:01:50.509Z,18.622131
2018-10-11T03:02:21.214Z,18.581848
2018-10-11T03:02:50.613Z,18.581848
2018-10-11T03:03:20.103Z,18.622131
2018-10-11T03:03:49.607Z,18.622131
2018-10-11T03:04:19.110Z,18.632202
2018-10-11T03:04:48.603Z,18.652344
2018-10-11T03:05:18.111Z,18.632202
2018-10-11T03:05:47.598Z,18.632202
2018-10-11T03:06:18.104Z,18.632202
2018-10-11T03:06:47.617Z,18.662415
2018-10-11T03:07:17.168Z,18.652344
2018-10-11T03:07:46.661Z,18.672485
2018-10-11T03:08:16.152Z,18.672485
2018-10-11T03:08:45.640Z,18.662415
2018-10-11T03:09:15.139Z,18.702698
2018-10-11T03:09:44.634Z,18.692627
2018-10-11T03:10:14.131Z,18.722839
2018-10-11T03:10:43.664Z,18.753052
2018-10-11T03:11:13.151Z,18.803406
2018-10-11T03:11:42.635Z,18.803406
2018-10-11T03:12:12.182Z,18.763123
2018-10-11T03:12:41.672Z,18.753052
2018-10-11T03:13:11.190Z,18.692627
2018-10-11T03:13:40.668Z,18.652344
2018-10-11T03:14:10.163Z,18.632202
2018-10-11T03:14:39.682Z,18.652344
2018-10-11T03:15:09.172Z,18.672485
2018-10-11T03:15:38.704Z,18.662415
2018-10-11T03:16:08.201Z,18.702698
2018-10-11T03:16:37.702Z,18.702698
2018-10-11T03:17:07.191Z,18.652344
2018-10-11T03:17:36.733Z,18.652344
2018-10-11T03:18:06.260Z,18.662415
2018-10-11T03:18:35.747Z,18.672485
2018-10-11T03:19:05.235Z,18.672485
2018-10-11T03:19:34.723Z,18.672485
2018-10-11T03:20:04.240Z,18.662415
2018-10-11T03:20:33.726Z,18.622131
2018-10-11T03:21:03.260Z,18.632202
2018-10-11T03:21:33.427Z,18.622131
2018-10-11T03:22:02.937Z,18.60199
2018-10-11T03:22:32.478Z,18.541565
2018-10-11T03:23:01.976Z,18.420715
2018-10-11T03:23:31.481Z,18.370361
2018-10-11T03:24:00.975Z,18.330078
2018-10-11T03:24:30.463Z,18.330078
2018-10-11T03:24:59.957Z,18.35022
2018-10-11T03:25:29.453Z,18.410645
2018-10-11T03:25:58.951Z,18.471069
2018-10-11T03:26:28.440Z,18.501282
2018-10-11T03:26:57.937Z,18.501282
2018-10-11T03:27:27.461Z,18.541565
2018-10-11T03:27:57.015Z,18.541565
2018-10-11T03:28:26.525Z,18.551636
2018-10-11T03:28:56.016Z,18.551636
2018-10-11T03:29:25.518Z,18.551636
2018-10-11T03:29:55.049Z,18.571777
2018-10-11T03:30:24.561Z,18.571777
2018-10-11T03:30:54.085Z,18.581848
2018-10-11T03:31:23.598Z,18.60199
2018-10-11T03:31:53.095Z,18.60199
2018-10-11T03:32:22.604Z,18.581848
2018-10-11T03:32:53.147Z,18.581848
2018-10-11T03:33:22.656Z,18.551636
2018-10-11T03:33:52.156Z,18.571777
2018-10-11T03:34:21.658Z,18.541565
2018-10-11T03:34:51.153Z,18.521423
2018-10-11T03:35:20.644Z,18.471069
2018-10-11T03:35:51.134Z,18.450928
2018-10-11T03:36:20.660Z,18.450928
2018-10-11T03:36:50.151Z,18.501282
2018-10-11T03:37:19.742Z,18.48114
2018-10-11T03:37:49.197Z,18.48114
2018-10-11T03:38:18.862Z,18.48114
2018-10-11T03:38:48.349Z,18.410645
2018-10-11T03:39:17.853Z,18.299866
2018-10-11T03:39:47.398Z,18.249512
2018-10-11T03:40:16.893Z,18.138733
2018-10-11T03:40:46.414Z,18.027954
2018-10-11T03:41:15.915Z,17.897034
2018-10-11T03:41:45.415Z,17.836609
2018-10-11T03:42:14.945Z,17.786255
2018-10-11T03:42:44.446Z,17.766113
2018-10-11T03:43:14.983Z,17.715759
2018-10-11T03:43:44.493Z,17.776184
2018-10-11T03:44:14.061Z,17.816467
2018-10-11T03:44:43.555Z,17.866821
2018-10-11T03:45:13.043Z,17.957458
2018-10-11T03:45:42.544Z,18.048096
2018-10-11T03:46:13.032Z,18.118591
2018-10-11T03:46:42.699Z,18.199158
2018-10-11T03:47:14.265Z,18.22937
2018-10-11T03:47:43.770Z,18.289795
2018-10-11T03:48:13.260Z,18.320007
2018-10-11T03:48:42.801Z,18.360291
2018-10-11T03:49:12.300Z,18.390503
2018-10-11T03:49:41.804Z,18.390503
2018-10-11T03:50:11.308Z,18.410645
2018-10-11T03:50:40.801Z,18.440857
2018-10-11T03:51:10.312Z,18.471069
2018-10-11T03:51:39.846Z,18.501282
2018-10-11T03:52:09.341Z,18.450928
2018-10-11T03:52:38.859Z,18.48114
2018-10-11T03:53:08.369Z,18.48114
2018-10-11T03:53:37.917Z,18.501282
2018-10-11T03:54:07.433Z,18.541565
2018-10-11T03:54:36.923Z,18.511353
2018-10-11T03:55:06.493Z,18.521423
2018-10-11T03:55:36.036Z,18.541565
2018-10-11T03:56:05.511Z,18.541565
2018-10-11T03:56:35.018Z,18.622131
2018-10-11T03:57:05.508Z,18.632202
2018-10-11T03:57:35.004Z,18.632202
2018-10-11T03:58:04.509Z,18.622131
2018-10-11T03:58:34.050Z,18.581848
2018-10-11T03:59:03.546Z,18.581848
2018-10-11T03:59:33.163Z,18.541565
2018-10-11T04:00:02.676Z,18.501282
2018-10-11T04:00:32.155Z,18.48114
2018-10-11T04:01:01.693Z,18.450928
2018-10-11T04:01:31.189Z,18.471069
2018-10-11T04:02:00.687Z,18.450928
2018-10-11T04:02:30.170Z,18.471069
2018-10-11T04:02:59.665Z,18.501282
2018-10-11T04:03:29.159Z,18.501282
2018-10-11T04:03:58.728Z,18.48114
2018-10-11T04:04:28.244Z,18.511353
2018-10-11T04:04:57.746Z,18.511353
2018-10-11T04:05:27.254Z,18.521423
2018-10-11T04:05:56.790Z,18.521423
2018-10-11T04:06:26.273Z,18.521423
2018-10-11T04:06:55.763Z,18.551636
2018-10-11T04:07:26.299Z,18.571777
2018-10-11T04:07:55.748Z,18.581848
2018-10-11T04:08:25.241Z,18.581848
2018-10-11T04:08:54.802Z,18.60199
2018-10-11T04:09:24.314Z,18.571777
2018-10-11T04:09:53.803Z,18.60199
2018-10-11T04:10:23.300Z,18.622131
2018-10-11T04:10:52.784Z,18.622131
2018-10-11T04:11:22.295Z,18.632202
2018-10-11T04:11:51.803Z,18.652344
2018-10-11T04:12:21.290Z,18.632202
2018-10-11T04:12:50.827Z,18.662415
2018-10-11T04:13:20.313Z,18.632202
2018-10-11T04:13:49.823Z,18.632202
2018-10-11T04:14:19.379Z,18.632202
2018-10-11T04:14:48.871Z,18.632202
2018-10-11T04:15:18.369Z,18.672485
2018-10-11T04:15:47.864Z,18.692627
2018-10-11T04:16:17.363Z,18.672485
2018-10-11T04:16:47.026Z,18.672485
2018-10-11T04:17:17.515Z,18.692627
2018-10-11T04:17:47.017Z,18.702698
2018-10-11T04:18:16.519Z,18.753052
2018-10-11T04:18:46.040Z,18.783264
2018-10-11T04:19:15.603Z,18.763123
2018-10-11T04:19:45.117Z,18.753052
2018-10-11T04:20:14.607Z,18.753052
2018-10-11T04:20:44.095Z,18.702698
2018-10-11T04:21:13.600Z,18.692627
2018-10-11T04:21:43.106Z,18.652344
2018-10-11T04:22:12.594Z,18.662415
2018-10-11T04:22:42.140Z,18.672485
2018-10-11T04:23:11.684Z,18.652344
2018-10-11T04:23:41.182Z,18.662415
2018-10-11T04:24:10.693Z,18.672485
2018-10-11T04:24:40.245Z,18.672485
2018-10-11T04:25:09.736Z,18.692627
2018-10-11T04:25:39.252Z,18.692627
2018-10-11T04:26:08.728Z,18.702698
2018-10-11T04:26:38.226Z,18.702698
2018-10-11T04:27:07.725Z,18.702698
2018-10-11T04:27:37.223Z,18.672485
2018-10-11T04:28:06.715Z,18.672485
2018-10-11T04:28:36.200Z,18.662415
2018-10-11T04:29:05.695Z,18.672485
2018-10-11T04:29:35.282Z,18.672485
2018-10-11T04:30:04.789Z,18.73291
2018-10-11T04:30:34.295Z,18.722839
2018-10-11T04:31:03.819Z,18.753052
2018-10-11T04:31:33.321Z,18.763123
2018-10-11T04:32:02.859Z,18.803406
2018-10-11T04:32:32.398Z,18.783264
2018-10-11T04:33:01.932Z,18.803406
2018-10-11T04:33:31.421Z,18.803406
2018-10-11T04:34:00.963Z,18.813477
2018-10-11T04:34:30.591Z,18.803406
2018-10-11T04:35:00.132Z,18.803406
2018-10-11T04:35:29.629Z,18.813477
2018-10-11T04:35:59.175Z,18.803406
2018-10-11T04:36:28.620Z,18.783264
2018-10-11T04:36:59.104Z,18.803406
2018-10-11T04:37:28.619Z,18.803406
2018-10-11T04:37:58.113Z,18.753052
2018-10-11T04:38:27.642Z,18.702698
2018-10-11T04:38:58.124Z,18.581848
2018-10-11T04:39:28.632Z,18.390503
2018-10-11T04:39:58.177Z,18.259583
2018-10-11T04:40:27.674Z,18.199158
2018-10-11T04:40:57.170Z,18.168945
2018-10-11T04:41:26.690Z,18.138733
2018-10-11T04:41:56.179Z,18.108521
2018-10-11T04:42:25.692Z,18.118591
2018-10-11T04:42:55.203Z,18.138733
2018-10-11T04:43:24.671Z,18.22937
2018-10-11T04:43:54.190Z,18.269653
2018-10-11T04:44:23.711Z,18.299866
2018-10-11T04:44:53.274Z,18.259583
2018-10-11T04:45:22.769Z,18.209229
2018-10-11T04:45:52.268Z,18.209229
2018-10-11T04:46:21.766Z,18.199158
2018-10-11T04:46:51.258Z,18.199158
2018-10-11T04:47:20.749Z,18.209229
2018-10-11T04:47:50.249Z,18.22937
2018-10-11T04:48:19.745Z,18.259583
2018-10-11T04:48:49.227Z,18.289795
2018-10-11T04:49:18.717Z,18.35022
2018-10-11T04:49:48.223Z,18.390503
2018-10-11T04:50:17.768Z,18.48114
2018-10-11T04:50:47.257Z,18.511353
2018-10-11T04:51:16.750Z,18.511353
2018-10-11T04:51:46.252Z,18.511353
2018-10-11T04:52:15.783Z,18.541565
2018-10-11T04:52:45.272Z,18.581848
2018-10-11T04:53:14.782Z,18.571777
2018-10-11T04:53:44.471Z,18.581848
2018-10-11T04:54:13.746Z,18.581848
2018-10-11T04:54:43.291Z,18.622131
2018-10-11T04:55:12.837Z,18.581848
2018-10-11T04:55:42.322Z,18.571777
2018-10-11T04:56:11.821Z,18.581848
2018-10-11T04:56:41.309Z,18.571777
2018-10-11T04:57:10.803Z,18.541565
2018-10-11T04:57:40.294Z,18.551636
2018-10-11T04:58:09.787Z,18.571777
2018-10-11T04:58:39.292Z,18.551636
2018-10-11T04:59:08.788Z,18.521423
2018-10-11T04:59:38.356Z,18.571777
2018-10-11T05:00:07.786Z,18.541565
2018-10-11T05:00:38.337Z,18.541565
2018-10-11T05:01:07.845Z,18.551636
2018-10-11T05:01:37.336Z,18.581848
2018-10-11T05:02:06.832Z,18.60199
2018-10-11T05:02:36.331Z,18.60199
2018-10-11T05:03:05.822Z,18.581848
2018-10-11T05:03:35.401Z,18.551636
2018-10-11T05:04:04.909Z,18.571777
2018-10-11T05:04:34.409Z,18.551636
2018-10-11T05:05:03.898Z,18.551636
2018-10-11T05:05:33.511Z,18.551636
2018-10-11T05:06:03.013Z,18.521423
2018-10-11T05:06:32.505Z,18.541565
2018-10-11T05:07:02.008Z,18.511353
2018-10-11T05:07:31.526Z,18.541565
2018-10-11T05:08:01.030Z,18.541565
2018-10-11T05:08:30.556Z,18.521423
2018-10-11T05:09:00.058Z,18.541565
2018-10-11T05:09:30.658Z,18.541565
2018-10-11T05:10:00.159Z,18.501282
2018-10-11T05:10:29.672Z,18.501282
2018-10-11T05:10:59.263Z,18.471069
2018-10-11T05:11:28.776Z,18.501282
2018-10-11T05:11:58.294Z,18.501282
2018-10-11T05:12:27.801Z,18.501282
2018-10-11T05:12:57.293Z,18.521423
2018-10-11T05:13:26.801Z,18.551636
2018-10-11T05:13:56.310Z,18.551636
2018-10-11T05:14:25.809Z,18.571777
2018-10-11T05:14:55.300Z,18.571777
2018-10-11T05:15:26.416Z,18.581848
2018-10-11T05:15:55.963Z,18.622131
2018-10-11T05:16:25.513Z,18.622131
2018-10-11T05:16:55.008Z,18.571777
2018-10-11T05:17:24.590Z,18.541565
2018-10-11T05:17:54.012Z,18.501282
2018-10-11T05:18:23.521Z,18.420715
2018-10-11T05:18:53.022Z,18.390503
2018-10-11T05:19:22.567Z,18.370361
2018-10-11T05:19:52.057Z,18.370361
2018-10-11T05:20:22.587Z,18.390503
2018-10-11T05:20:52.155Z,18.410645
2018-10-11T05:21:21.809Z,18.450928
2018-10-11T05:21:51.384Z,18.501282
2018-10-11T05:22:20.870Z,18.551636
2018-10-11T05:22:50.374Z,18.581848
2018-10-11T05:23:19.917Z,18.622131
2018-10-11T05:23:50.409Z,18.622131
2018-10-11T05:24:19.900Z,18.662415
2018-10-11T05:24:49.434Z,18.662415
2018-10-11T05:25:19.920Z,18.702698
2018-10-11T05:25:49.425Z,18.692627
2018-10-11T05:26:18.981Z,18.722839
2018-10-11T05:26:48.512Z,18.692627
2018-10-11T05:27:18.017Z,18.702698
2018-10-11T05:27:47.523Z,18.692627
2018-10-11T05:28:17.019Z,18.692627
2018-10-11T05:28:46.508Z,18.692627
2018-10-11T05:29:16.077Z,18.692627
2018-10-11T05:29:45.545Z,18.692627
2018-10-11T05:30:15.039Z,18.702698
2018-10-11T05:30:44.555Z,18.702698
2018-10-11T05:31:14.037Z,18.702698
2018-10-11T05:31:43.652Z,18.73291
2018-10-11T05:32:13.217Z,18.763123
2018-10-11T05:32:42.654Z,18.763123
2018-10-11T05:33:12.160Z,18.783264
2018-10-11T05:33:41.652Z,18.73291
2018-10-11T05:34:11.155Z,18.783264
2018-10-11T05:34:40.653Z,18.803406
2018-10-11T05:35:10.177Z,18.85376
2018-10-11T05:35:39.674Z,18.883972
2018-10-11T05:36:09.214Z,18.843689
2018-10-11T05:36:38.763Z,18.843689
2018-10-11T05:37:08.253Z,18.823547
2018-10-11T05:37:37.761Z,18.813477
2018-10-11T05:38:07.291Z,18.823547
2018-10-11T05:38:36.802Z,18.823547
2018-10-11T05:39:06.296Z,18.813477